sensor_id;sensor_type;location;lat;lon;timestamp;P1;durP1;ratioP1;P2;durP2;ratioP2
21636;SDS011;10980;49.596;6.142;2022-07-10T00:02:22;7.30;;;1.48;;
21636;SDS011;10980;49.596;6.142;2022-07-10T00:05:44;5.07;;;1.67;;
21636;SDS011;10980;49.596;6.142;2022-07-10T00:09:06;4.95;;;1.27;;
21636;SDS011;10980;49.596;6.142;2022-07-10T00:12:27;6.25;;;1.58;;
21636;SDS011;10980;49.596;6.142;2022-07-10T00:15:49;4.50;;;1.33;;
21636;SDS011;10980;49.596;6.142;2022-07-10T00:19:11;3.65;;;1.48;;
21636;SDS011;10980;49.596;6.142;2022-07-10T00:22:33;2.42;;;1.40;;
21636;SDS011;10980;49.596;6.142;2022-07-10T00:25:56;4.25;;;1.63;;
21636;SDS011;10980;49.596;6.142;2022-07-10T00:29:17;3.45;;;1.52;;
21636;SDS011;10980;49.596;6.142;2022-07-10T00:32:39;3.63;;;1.50;;
21636;SDS011;10980;49.596;6.142;2022-07-10T00:36:01;4.53;;;1.85;;
21636;SDS011;10980;49.596;6.142;2022-07-10T00:39:23;4.43;;;1.60;;
21636;SDS011;10980;49.596;6.142;2022-07-10T00:42:45;5.97;;;1.42;;
21636;SDS011;10980;49.596;6.142;2022-07-10T00:46:07;5.80;;;1.48;;
21636;SDS011;10980;49.596;6.142;2022-07-10T00:49:29;3.47;;;1.83;;
21636;SDS011;10980;49.596;6.142;2022-07-10T00:52:51;3.53;;;1.65;;
21636;SDS011;10980;49.596;6.142;2022-07-10T00:56:16;3.72;;;1.30;;
21636;SDS011;10980;49.596;6.142;2022-07-10T00:59:41;3.55;;;1.48;;
21636;SDS011;10980;49.596;6.142;2022-07-10T01:03:03;2.92;;;1.35;;
21636;SDS011;10980;49.596;6.142;2022-07-10T01:06:25;3.83;;;1.52;;
21636;SDS011;10980;49.596;6.142;2022-07-10T01:09:46;5.47;;;1.40;;
21636;SDS011;10980;49.596;6.142;2022-07-10T01:13:08;4.05;;;1.40;;
21636;SDS011;10980;49.596;6.142;2022-07-10T01:16:31;3.95;;;1.13;;
21636;SDS011;10980;49.596;6.142;2022-07-10T01:19:53;5.63;;;1.30;;
21636;SDS011;10980;49.596;6.142;2022-07-10T01:23:15;6.45;;;1.30;;
21636;SDS011;10980;49.596;6.142;2022-07-10T01:26:37;2.38;;;1.40;;
21636;SDS011;10980;49.596;6.142;2022-07-10T01:30:04;3.03;;;1.48;;
21636;SDS011;10980;49.596;6.142;2022-07-10T01:33:26;6.00;;;1.35;;
21636;SDS011;10980;49.596;6.142;2022-07-10T01:36:48;3.30;;;1.45;;
21636;SDS011;10980;49.596;6.142;2022-07-10T01:40:10;5.45;;;1.35;;
21636;SDS011;10980;49.596;6.142;2022-07-10T01:43:32;6.80;;;1.50;;
21636;SDS011;10980;49.596;6.142;2022-07-10T01:46:54;2.38;;;1.20;;
21636;SDS011;10980;49.596;6.142;2022-07-10T01:50:16;3.80;;;1.30;;
21636;SDS011;10980;49.596;6.142;2022-07-10T01:53:38;2.70;;;1.30;;
21636;SDS011;10980;49.596;6.142;2022-07-10T01:57:00;4.78;;;1.40;;
21636;SDS011;10980;49.596;6.142;2022-07-10T02:00:22;8.35;;;1.67;;
21636;SDS011;10980;49.596;6.142;2022-07-10T02:03:45;4.57;;;1.40;;
21636;SDS011;10980;49.596;6.142;2022-07-10T02:07:25;8.70;;;1.60;;
21636;SDS011;10980;49.596;6.142;2022-07-10T02:10:47;6.07;;;1.42;;
21636;SDS011;10980;49.596;6.142;2022-07-10T02:14:10;6.07;;;1.10;;
21636;SDS011;10980;49.596;6.142;2022-07-10T02:17:31;6.32;;;1.27;;
21636;SDS011;10980;49.596;6.142;2022-07-10T02:20:53;5.30;;;1.58;;
21636;SDS011;10980;49.596;6.142;2022-07-10T02:24:15;4.10;;;1.40;;
21636;SDS011;10980;49.596;6.142;2022-07-10T02:27:37;21.15;;;1.73;;
21636;SDS011;10980;49.596;6.142;2022-07-10T02:31:00;5.18;;;1.50;;
21636;SDS011;10980;49.596;6.142;2022-07-10T02:34:22;5.18;;;1.42;;
21636;SDS011;10980;49.596;6.142;2022-07-10T02:37:43;6.50;;;1.48;;
21636;SDS011;10980;49.596;6.142;2022-07-10T02:41:05;7.38;;;1.40;;
21636;SDS011;10980;49.596;6.142;2022-07-10T02:44:27;6.28;;;1.40;;
21636;SDS011;10980;49.596;6.142;2022-07-10T02:47:50;4.38;;;1.17;;
21636;SDS011;10980;49.596;6.142;2022-07-10T02:51:12;4.20;;;1.42;;
21636;SDS011;10980;49.596;6.142;2022-07-10T02:54:34;3.42;;;1.40;;
21636;SDS011;10980;49.596;6.142;2022-07-10T02:57:55;4.10;;;1.25;;
21636;SDS011;10980;49.596;6.142;2022-07-10T03:01:17;8.23;;;1.38;;
21636;SDS011;10980;49.596;6.142;2022-07-10T03:04:39;5.97;;;1.40;;
21636;SDS011;10980;49.596;6.142;2022-07-10T03:08:01;4.05;;;1.50;;
21636;SDS011;10980;49.596;6.142;2022-07-10T03:11:23;6.45;;;1.60;;
21636;SDS011;10980;49.596;6.142;2022-07-10T03:14:44;3.53;;;1.73;;
21636;SDS011;10980;49.596;6.142;2022-07-10T03:18:06;3.85;;;1.30;;
21636;SDS011;10980;49.596;6.142;2022-07-10T03:21:28;2.08;;;1.13;;
21636;SDS011;10980;49.596;6.142;2022-07-10T03:24:52;2.50;;;1.20;;
21636;SDS011;10980;49.596;6.142;2022-07-10T03:28:14;2.95;;;1.60;;
21636;SDS011;10980;49.596;6.142;2022-07-10T03:31:35;5.32;;;1.30;;
21636;SDS011;10980;49.596;6.142;2022-07-10T03:34:58;3.65;;;1.40;;
21636;SDS011;10980;49.596;6.142;2022-07-10T03:38:19;5.15;;;1.13;;
21636;SDS011;10980;49.596;6.142;2022-07-10T03:41:41;6.05;;;1.52;;
21636;SDS011;10980;49.596;6.142;2022-07-10T03:45:03;5.38;;;1.20;;
21636;SDS011;10980;49.596;6.142;2022-07-10T03:48:26;5.97;;;1.27;;
21636;SDS011;10980;49.596;6.142;2022-07-10T03:51:47;6.88;;;1.48;;
21636;SDS011;10980;49.596;6.142;2022-07-10T03:55:09;6.47;;;2.08;;
21636;SDS011;10980;49.596;6.142;2022-07-10T03:58:31;655.08;;;229.05;;
21636;SDS011;10980;49.596;6.142;2022-07-10T04:01:53;1999.90;;;999.90;;
21636;SDS011;10980;49.596;6.142;2022-07-10T04:05:15;1999.90;;;999.90;;
21636;SDS011;10980;49.596;6.142;2022-07-10T04:08:37;1424.85;;;390.75;;
21636;SDS011;10980;49.596;6.142;2022-07-10T04:11:59;1997.85;;;615.03;;
21636;SDS011;10980;49.596;6.142;2022-07-10T04:15:21;1999.90;;;752.47;;
21636;SDS011;10980;49.596;6.142;2022-07-10T04:18:43;1985.88;;;691.08;;
21636;SDS011;10980;49.596;6.142;2022-07-10T04:22:05;1999.90;;;779.08;;
21636;SDS011;10980;49.596;6.142;2022-07-10T04:25:27;1934.05;;;680.35;;
21636;SDS011;10980;49.596;6.142;2022-07-10T04:28:48;1984.10;;;746.15;;
21636;SDS011;10980;49.596;6.142;2022-07-10T04:32:10;1987.72;;;735.10;;
21636;SDS011;10980;49.596;6.142;2022-07-10T04:35:32;1851.57;;;642.20;;
21636;SDS011;10980;49.596;6.142;2022-07-10T04:38:54;1809.10;;;641.30;;
21636;SDS011;10980;49.596;6.142;2022-07-10T04:42:16;1196.90;;;434.98;;
21636;SDS011;10980;49.596;6.142;2022-07-10T04:45:37;1005.17;;;360.88;;
21636;SDS011;10980;49.596;6.142;2022-07-10T04:48:59;597.17;;;242.18;;
21636;SDS011;10980;49.596;6.142;2022-07-10T04:52:21;813.60;;;306.63;;
21636;SDS011;10980;49.596;6.142;2022-07-10T04:55:43;625.35;;;251.40;;
21636;SDS011;10980;49.596;6.142;2022-07-10T04:59:05;795.47;;;289.40;;
21636;SDS011;10980;49.596;6.142;2022-07-10T05:02:27;729.00;;;242.30;;
21636;SDS011;10980;49.596;6.142;2022-07-10T05:05:49;851.05;;;324.15;;
21636;SDS011;10980;49.596;6.142;2022-07-10T05:09:11;1281.07;;;476.05;;
21636;SDS011;10980;49.596;6.142;2022-07-10T05:12:32;1192.90;;;432.65;;
21636;SDS011;10980;49.596;6.142;2022-07-10T05:15:54;1082.70;;;429.42;;
21636;SDS011;10980;49.596;6.142;2022-07-10T05:19:16;1047.78;;;416.45;;
21636;SDS011;10980;49.596;6.142;2022-07-10T05:22:38;1242.70;;;457.95;;
21636;SDS011;10980;49.596;6.142;2022-07-10T05:25:59;1304.68;;;465.10;;
21636;SDS011;10980;49.596;6.142;2022-07-10T05:29:21;1677.60;;;617.72;;
21636;SDS011;10980;49.596;6.142;2022-07-10T05:32:43;1985.88;;;736.63;;
21636;SDS011;10980;49.596;6.142;2022-07-10T05:36:06;1740.97;;;620.33;;
21636;SDS011;10980;49.596;6.142;2022-07-10T05:39:29;1184.57;;;430.48;;
21636;SDS011;10980;49.596;6.142;2022-07-10T05:42:51;1669.93;;;626.30;;
21636;SDS011;10980;49.596;6.142;2022-07-10T05:46:12;1999.90;;;836.17;;
21636;SDS011;10980;49.596;6.142;2022-07-10T05:49:34;1999.90;;;939.50;;
21636;SDS011;10980;49.596;6.142;2022-07-10T05:52:56;1999.90;;;900.80;;
21636;SDS011;10980;49.596;6.142;2022-07-10T05:56:18;1999.90;;;838.35;;
21636;SDS011;10980;49.596;6.142;2022-07-10T05:59:40;1900.70;;;831.83;;
21636;SDS011;10980;49.596;6.142;2022-07-10T06:03:02;940.00;;;179.40;;
21636;SDS011;10980;49.596;6.142;2022-07-10T06:06:23;1999.90;;;999.90;;
21636;SDS011;10980;49.596;6.142;2022-07-10T06:09:45;1999.90;;;999.90;;
21636;SDS011;10980;49.596;6.142;2022-07-10T06:13:07;1999.90;;;999.90;;
21636;SDS011;10980;49.596;6.142;2022-07-10T06:16:29;1999.90;;;999.90;;
21636;SDS011;10980;49.596;6.142;2022-07-10T06:19:51;1999.90;;;999.90;;
21636;SDS011;10980;49.596;6.142;2022-07-10T06:23:12;1999.90;;;999.90;;
21636;SDS011;10980;49.596;6.142;2022-07-10T06:26:34;1999.90;;;999.90;;
21636;SDS011;10980;49.596;6.142;2022-07-10T06:29:56;1999.90;;;999.90;;
21636;SDS011;10980;49.596;6.142;2022-07-10T06:33:18;1999.90;;;999.90;;
21636;SDS011;10980;49.596;6.142;2022-07-10T06:36:40;1999.90;;;999.90;;
21636;SDS011;10980;49.596;6.142;2022-07-10T06:40:02;1999.90;;;999.90;;
21636;SDS011;10980;49.596;6.142;2022-07-10T06:43:25;1999.90;;;999.90;;
21636;SDS011;10980;49.596;6.142;2022-07-10T06:46:46;1999.90;;;999.90;;
21636;SDS011;10980;49.596;6.142;2022-07-10T06:50:29;1999.90;;;999.90;;
21636;SDS011;10980;49.596;6.142;2022-07-10T06:53:51;1999.90;;;999.90;;
21636;SDS011;10980;49.596;6.142;2022-07-10T06:57:14;1999.90;;;999.90;;
21636;SDS011;10980;49.596;6.142;2022-07-10T07:00:36;1999.90;;;999.90;;
21636;SDS011;10980;49.596;6.142;2022-07-10T07:03:57;1999.90;;;566.20;;
21636;SDS011;10980;49.596;6.142;2022-07-10T07:07:19;1999.90;;;999.90;;
21636;SDS011;10980;49.596;6.142;2022-07-10T07:10:45;1999.90;;;983.85;;
21636;SDS011;10980;49.596;6.142;2022-07-10T07:14:07;546.40;;;382.05;;
21636;SDS011;10980;49.596;6.142;2022-07-10T07:17:29;128.45;;;95.55;;
21636;SDS011;10980;49.596;6.142;2022-07-10T07:21:07;156.10;;;127.97;;
21636;SDS011;10980;49.596;6.142;2022-07-10T07:24:47;112.07;;;92.43;;
21636;SDS011;10980;49.596;6.142;2022-07-10T07:28:09;40.10;;;35.83;;
21636;SDS011;10980;49.596;6.142;2022-07-10T07:31:31;1999.90;;;999.90;;
21636;SDS011;10980;49.596;6.142;2022-07-10T07:34:53;920.50;;;352.35;;
21636;SDS011;10980;49.596;6.142;2022-07-10T07:38:15;5.72;;;2.40;;
21636;SDS011;10980;49.596;6.142;2022-07-10T07:41:37;10.65;;;1.02;;
21636;SDS011;10980;49.596;6.142;2022-07-10T07:44:58;3.85;;;0.93;;
21636;SDS011;10980;49.596;6.142;2022-07-10T07:48:20;5.30;;;1.35;;
21636;SDS011;10980;49.596;6.142;2022-07-10T07:51:42;1.98;;;0.90;;
21636;SDS011;10980;49.596;6.142;2022-07-10T07:55:04;4.82;;;0.60;;
21636;SDS011;10980;49.596;6.142;2022-07-10T07:58:27;9.15;;;1.55;;
21636;SDS011;10980;49.596;6.142;2022-07-10T08:01:49;2.45;;;0.70;;
21636;SDS011;10980;49.596;6.142;2022-07-10T08:05:12;6.57;;;0.73;;
21636;SDS011;10980;49.596;6.142;2022-07-10T08:08:34;4.45;;;0.90;;
21636;SDS011;10980;49.596;6.142;2022-07-10T08:11:56;2.13;;;0.70;;
21636;SDS011;10980;49.596;6.142;2022-07-10T08:15:19;5.15;;;1.02;;
21636;SDS011;10980;49.596;6.142;2022-07-10T08:18:44;4.97;;;0.90;;
21636;SDS011;10980;49.596;6.142;2022-07-10T08:22:06;5.15;;;0.80;;
21636;SDS011;10980;49.596;6.142;2022-07-10T08:25:28;7.18;;;0.77;;
21636;SDS011;10980;49.596;6.142;2022-07-10T08:28:54;3.35;;;0.85;;
21636;SDS011;10980;49.596;6.142;2022-07-10T08:32:16;3.40;;;0.90;;
21636;SDS011;10980;49.596;6.142;2022-07-10T08:35:38;3.13;;;0.70;;
21636;SDS011;10980;49.596;6.142;2022-07-10T08:39:00;9.23;;;1.38;;
21636;SDS011;10980;49.596;6.142;2022-07-10T08:42:22;5.03;;;0.90;;
21636;SDS011;10980;49.596;6.142;2022-07-10T08:45:46;5.00;;;1.13;;
21636;SDS011;10980;49.596;6.142;2022-07-10T08:49:10;5.40;;;1.10;;
21636;SDS011;10980;49.596;6.142;2022-07-10T08:52:38;2.60;;;0.93;;
21636;SDS011;10980;49.596;6.142;2022-07-10T08:56:06;2.75;;;0.63;;
21636;SDS011;10980;49.596;6.142;2022-07-10T08:59:28;7.50;;;0.80;;
21636;SDS011;10980;49.596;6.142;2022-07-10T09:02:55;5.47;;;0.90;;
21636;SDS011;10980;49.596;6.142;2022-07-10T09:06:18;4.85;;;0.90;;
21636;SDS011;10980;49.596;6.142;2022-07-10T09:09:52;2.13;;;0.70;;
21636;SDS011;10980;49.596;6.142;2022-07-10T09:13:16;6.15;;;0.80;;
21636;SDS011;10980;49.596;6.142;2022-07-10T09:16:38;2.63;;;1.08;;
21636;SDS011;10980;49.596;6.142;2022-07-10T09:20:01;5.50;;;0.82;;
21636;SDS011;10980;49.596;6.142;2022-07-10T09:23:24;9.23;;;0.90;;
21636;SDS011;10980;49.596;6.142;2022-07-10T09:30:30;5.35;;;0.88;;
21636;SDS011;10980;49.596;6.142;2022-07-10T09:33:53;3.55;;;0.63;;
21636;SDS011;10980;49.596;6.142;2022-07-10T09:37:22;6.93;;;0.90;;
21636;SDS011;10980;49.596;6.142;2022-07-10T09:40:48;3.42;;;0.90;;
21636;SDS011;10980;49.596;6.142;2022-07-10T09:44:10;4.13;;;1.05;;
21636;SDS011;10980;49.596;6.142;2022-07-10T09:47:32;3.15;;;1.05;;
21636;SDS011;10980;49.596;6.142;2022-07-10T09:50:54;6.30;;;1.40;;
21636;SDS011;10980;49.596;6.142;2022-07-10T09:54:16;3.83;;;1.13;;
21636;SDS011;10980;49.596;6.142;2022-07-10T09:57:39;7.75;;;1.02;;
21636;SDS011;10980;49.596;6.142;2022-07-10T10:01:05;3.88;;;0.75;;
21636;SDS011;10980;49.596;6.142;2022-07-10T10:04:28;3.20;;;1.20;;
21636;SDS011;10980;49.596;6.142;2022-07-10T10:08:01;4.95;;;1.10;;
21636;SDS011;10980;49.596;6.142;2022-07-10T10:11:45;3.05;;;0.90;;
21636;SDS011;10980;49.596;6.142;2022-07-10T10:15:10;6.97;;;1.08;;
21636;SDS011;10980;49.596;6.142;2022-07-10T10:18:32;3.15;;;1.20;;
21636;SDS011;10980;49.596;6.142;2022-07-10T10:21:55;8.45;;;1.50;;
21636;SDS011;10980;49.596;6.142;2022-07-10T10:25:18;9.30;;;2.22;;
21636;SDS011;10980;49.596;6.142;2022-07-10T10:28:40;1.98;;;0.80;;
21636;SDS011;10980;49.596;6.142;2022-07-10T10:32:03;5.05;;;0.80;;
21636;SDS011;10980;49.596;6.142;2022-07-10T10:35:41;6.93;;;0.70;;
21636;SDS011;10980;49.596;6.142;2022-07-10T10:39:09;2.03;;;0.88;;
21636;SDS011;10980;49.596;6.142;2022-07-10T10:42:41;4.32;;;0.77;;
21636;SDS011;10980;49.596;6.142;2022-07-10T10:46:23;4.65;;;1.30;;
21636;SDS011;10980;49.596;6.142;2022-07-10T10:49:57;3.70;;;0.88;;
21636;SDS011;10980;49.596;6.142;2022-07-10T10:53:27;6.25;;;1.40;;
21636;SDS011;10980;49.596;6.142;2022-07-10T11:00:41;3.80;;;0.95;;
21636;SDS011;10980;49.596;6.142;2022-07-10T11:14:52;4.22;;;1.13;;
21636;SDS011;10980;49.596;6.142;2022-07-10T11:18:16;3.38;;;1.00;;
21636;SDS011;10980;49.596;6.142;2022-07-10T11:21:47;2.45;;;0.80;;
21636;SDS011;10980;49.596;6.142;2022-07-10T11:29:06;6.15;;;1.50;;
21636;SDS011;10980;49.596;6.142;2022-07-10T11:32:28;3.28;;;0.98;;
21636;SDS011;10980;49.596;6.142;2022-07-10T11:35:51;2.33;;;0.85;;
21636;SDS011;10980;49.596;6.142;2022-07-10T11:39:14;1.65;;;0.85;;
21636;SDS011;10980;49.596;6.142;2022-07-10T11:42:48;2.53;;;0.70;;
21636;SDS011;10980;49.596;6.142;2022-07-10T11:46:11;5.60;;;1.10;;
21636;SDS011;10980;49.596;6.142;2022-07-10T11:49:32;2.65;;;1.25;;
21636;SDS011;10980;49.596;6.142;2022-07-10T11:52:55;4.03;;;1.20;;
21636;SDS011;10980;49.596;6.142;2022-07-10T11:56:20;2.15;;;0.80;;
21636;SDS011;10980;49.596;6.142;2022-07-10T11:59:43;3.00;;;1.05;;
21636;SDS011;10980;49.596;6.142;2022-07-10T12:03:20;2.85;;;0.90;;
21636;SDS011;10980;49.596;6.142;2022-07-10T12:06:49;2.03;;;0.73;;
21636;SDS011;10980;49.596;6.142;2022-07-10T12:10:12;3.92;;;0.80;;
21636;SDS011;10980;49.596;6.142;2022-07-10T12:13:34;2.25;;;1.15;;
21636;SDS011;10980;49.596;6.142;2022-07-10T12:16:56;3.10;;;1.13;;
21636;SDS011;10980;49.596;6.142;2022-07-10T12:20:19;3.33;;;0.90;;
21636;SDS011;10980;49.596;6.142;2022-07-10T12:23:42;4.88;;;1.10;;
21636;SDS011;10980;49.596;6.142;2022-07-10T12:27:05;3.67;;;0.93;;
21636;SDS011;10980;49.596;6.142;2022-07-10T12:30:36;9.68;;;4.15;;
21636;SDS011;10980;49.596;6.142;2022-07-10T12:34:02;4.78;;;1.58;;
21636;SDS011;10980;49.596;6.142;2022-07-10T12:37:25;3.90;;;1.73;;
21636;SDS011;10980;49.596;6.142;2022-07-10T12:40:47;4.10;;;1.30;;
21636;SDS011;10980;49.596;6.142;2022-07-10T12:44:09;4.47;;;1.83;;
21636;SDS011;10980;49.596;6.142;2022-07-10T12:47:42;4.25;;;1.20;;
21636;SDS011;10980;49.596;6.142;2022-07-10T12:51:25;4.13;;;1.10;;
21636;SDS011;10980;49.596;6.142;2022-07-10T12:54:48;5.78;;;1.15;;
21636;SDS011;10980;49.596;6.142;2022-07-10T12:58:10;2.28;;;0.80;;
21636;SDS011;10980;49.596;6.142;2022-07-10T13:01:42;2.65;;;0.70;;
21636;SDS011;10980;49.596;6.142;2022-07-10T13:05:06;2.40;;;0.90;;
21636;SDS011;10980;49.596;6.142;2022-07-10T13:08:28;1.40;;;0.80;;
21636;SDS011;10980;49.596;6.142;2022-07-10T13:11:51;2.53;;;0.75;;
21636;SDS011;10980;49.596;6.142;2022-07-10T13:15:14;1.15;;;0.70;;
21636;SDS011;10980;49.596;6.142;2022-07-10T13:18:46;3.10;;;1.17;;
21636;SDS011;10980;49.596;6.142;2022-07-10T13:22:08;1.25;;;0.50;;
21636;SDS011;10980;49.596;6.142;2022-07-10T13:25:30;5.20;;;1.40;;
21636;SDS011;10980;49.596;6.142;2022-07-10T13:28:52;1.58;;;0.80;;
21636;SDS011;10980;49.596;6.142;2022-07-10T13:32:14;2.00;;;0.98;;
21636;SDS011;10980;49.596;6.142;2022-07-10T13:35:36;2.47;;;0.60;;
21636;SDS011;10980;49.596;6.142;2022-07-10T13:38:58;5.00;;;1.35;;
21636;SDS011;10980;49.596;6.142;2022-07-10T13:42:20;0.88;;;0.50;;
21636;SDS011;10980;49.596;6.142;2022-07-10T13:45:42;2.53;;;0.90;;
21636;SDS011;10980;49.596;6.142;2022-07-10T13:49:06;1.20;;;0.50;;
21636;SDS011;10980;49.596;6.142;2022-07-10T13:52:28;4.63;;;0.68;;
21636;SDS011;10980;49.596;6.142;2022-07-10T13:55:50;2.08;;;0.43;;
21636;SDS011;10980;49.596;6.142;2022-07-10T13:59:13;2.17;;;0.70;;
21636;SDS011;10980;49.596;6.142;2022-07-10T14:02:36;0.95;;;0.45;;
21636;SDS011;10980;49.596;6.142;2022-07-10T14:05:58;3.55;;;0.60;;
21636;SDS011;10980;49.596;6.142;2022-07-10T14:09:20;4.45;;;0.77;;
21636;SDS011;10980;49.596;6.142;2022-07-10T14:12:44;3.50;;;0.55;;
21636;SDS011;10980;49.596;6.142;2022-07-10T14:16:07;2.15;;;0.50;;
21636;SDS011;10980;49.596;6.142;2022-07-10T14:19:29;2.67;;;0.50;;
21636;SDS011;10980;49.596;6.142;2022-07-10T14:22:51;1.23;;;0.40;;
21636;SDS011;10980;49.596;6.142;2022-07-10T14:26:13;2.67;;;0.60;;
21636;SDS011;10980;49.596;6.142;2022-07-10T14:29:35;1.25;;;0.50;;
21636;SDS011;10980;49.596;6.142;2022-07-10T14:32:57;2.70;;;0.52;;
21636;SDS011;10980;49.596;6.142;2022-07-10T14:36:19;1.10;;;0.45;;
21636;SDS011;10980;49.596;6.142;2022-07-10T14:39:40;1.25;;;0.30;;
21636;SDS011;10980;49.596;6.142;2022-07-10T14:43:03;3.05;;;1.08;;
21636;SDS011;10980;49.596;6.142;2022-07-10T14:46:25;1.25;;;0.50;;
21636;SDS011;10980;49.596;6.142;2022-07-10T14:49:47;2.08;;;0.55;;
21636;SDS011;10980;49.596;6.142;2022-07-10T14:53:08;1.48;;;0.60;;
21636;SDS011;10980;49.596;6.142;2022-07-10T14:56:34;1.63;;;0.50;;
21636;SDS011;10980;49.596;6.142;2022-07-10T14:59:56;2.97;;;0.52;;
21636;SDS011;10980;49.596;6.142;2022-07-10T15:03:18;0.50;;;0.30;;
21636;SDS011;10980;49.596;6.142;2022-07-10T15:06:39;0.70;;;0.30;;
21636;SDS011;10980;49.596;6.142;2022-07-10T15:10:01;1.58;;;0.50;;
21636;SDS011;10980;49.596;6.142;2022-07-10T15:13:23;0.68;;;0.30;;
21636;SDS011;10980;49.596;6.142;2022-07-10T15:16:45;2.17;;;0.40;;
21636;SDS011;10980;49.596;6.142;2022-07-10T15:20:07;1.85;;;0.47;;
21636;SDS011;10980;49.596;6.142;2022-07-10T15:23:30;3.70;;;0.40;;
21636;SDS011;10980;49.596;6.142;2022-07-10T15:26:52;1.35;;;0.47;;
21636;SDS011;10980;49.596;6.142;2022-07-10T15:30:14;0.98;;;0.40;;
21636;SDS011;10980;49.596;6.142;2022-07-10T15:33:37;0.90;;;0.30;;
21636;SDS011;10980;49.596;6.142;2022-07-10T15:37:05;1.85;;;0.40;;
21636;SDS011;10980;49.596;6.142;2022-07-10T15:40:27;1.30;;;0.68;;
21636;SDS011;10980;49.596;6.142;2022-07-10T15:43:52;0.30;;;0.20;;
21636;SDS011;10980;49.596;6.142;2022-07-10T15:47:14;3.58;;;0.75;;
21636;SDS011;10980;49.596;6.142;2022-07-10T15:50:38;0.82;;;0.43;;
21636;SDS011;10980;49.596;6.142;2022-07-10T15:53:59;5.03;;;0.32;;
21636;SDS011;10980;49.596;6.142;2022-07-10T15:57:21;1.38;;;0.30;;
21636;SDS011;10980;49.596;6.142;2022-07-10T16:00:43;0.40;;;0.35;;
21636;SDS011;10980;49.596;6.142;2022-07-10T16:04:05;0.52;;;0.30;;
21636;SDS011;10980;49.596;6.142;2022-07-10T16:07:27;1.35;;;0.30;;
21636;SDS011;10980;49.596;6.142;2022-07-10T16:10:49;1.00;;;0.30;;
21636;SDS011;10980;49.596;6.142;2022-07-10T16:14:12;2.00;;;0.40;;
21636;SDS011;10980;49.596;6.142;2022-07-10T16:17:34;2.20;;;0.52;;
21636;SDS011;10980;49.596;6.142;2022-07-10T16:20:56;5.22;;;0.50;;
21636;SDS011;10980;49.596;6.142;2022-07-10T16:24:18;0.60;;;0.30;;
21636;SDS011;10980;49.596;6.142;2022-07-10T16:27:40;2.45;;;0.40;;
21636;SDS011;10980;49.596;6.142;2022-07-10T16:31:01;3.58;;;0.50;;
21636;SDS011;10980;49.596;6.142;2022-07-10T16:34:24;0.70;;;0.30;;
21636;SDS011;10980;49.596;6.142;2022-07-10T16:37:46;2.13;;;0.50;;
21636;SDS011;10980;49.596;6.142;2022-07-10T16:41:08;3.47;;;0.40;;
21636;SDS011;10980;49.596;6.142;2022-07-10T16:44:30;1.88;;;0.43;;
21636;SDS011;10980;49.596;6.142;2022-07-10T16:47:52;1.58;;;0.60;;
21636;SDS011;10980;49.596;6.142;2022-07-10T16:51:16;2.45;;;0.60;;
21636;SDS011;10980;49.596;6.142;2022-07-10T16:54:45;0.80;;;0.32;;
21636;SDS011;10980;49.596;6.142;2022-07-10T16:58:07;1.77;;;0.60;;
21636;SDS011;10980;49.596;6.142;2022-07-10T17:01:29;3.42;;;0.50;;
21636;SDS011;10980;49.596;6.142;2022-07-10T17:04:51;2.63;;;0.45;;
21636;SDS011;10980;49.596;6.142;2022-07-10T17:08:13;1.38;;;0.40;;
21636;SDS011;10980;49.596;6.142;2022-07-10T17:11:35;3.03;;;0.70;;
21636;SDS011;10980;49.596;6.142;2022-07-10T17:14:57;1.42;;;0.47;;
21636;SDS011;10980;49.596;6.142;2022-07-10T17:18:21;3.88;;;0.88;;
21636;SDS011;10980;49.596;6.142;2022-07-10T17:21:44;3.70;;;0.88;;
21636;SDS011;10980;49.596;6.142;2022-07-10T17:25:19;1.88;;;0.43;;
21636;SDS011;10980;49.596;6.142;2022-07-10T17:28:41;2.55;;;0.68;;
21636;SDS011;10980;49.596;6.142;2022-07-10T17:32:03;1.88;;;0.50;;
21636;SDS011;10980;49.596;6.142;2022-07-10T17:35:26;2.88;;;0.40;;
21636;SDS011;10980;49.596;6.142;2022-07-10T17:38:48;1.35;;;0.30;;
21636;SDS011;10980;49.596;6.142;2022-07-10T17:42:11;1.60;;;0.63;;
21636;SDS011;10980;49.596;6.142;2022-07-10T17:45:33;2.28;;;0.80;;
21636;SDS011;10980;49.596;6.142;2022-07-10T17:48:55;1.20;;;0.50;;
21636;SDS011;10980;49.596;6.142;2022-07-10T17:52:18;1.40;;;0.50;;
21636;SDS011;10980;49.596;6.142;2022-07-10T17:55:39;1.75;;;0.50;;
21636;SDS011;10980;49.596;6.142;2022-07-10T17:59:02;1.20;;;0.60;;
21636;SDS011;10980;49.596;6.142;2022-07-10T18:02:24;3.35;;;0.70;;
21636;SDS011;10980;49.596;6.142;2022-07-10T18:05:47;1.52;;;0.70;;
21636;SDS011;10980;49.596;6.142;2022-07-10T18:09:09;2.45;;;0.60;;
21636;SDS011;10980;49.596;6.142;2022-07-10T18:12:37;5.20;;;0.77;;
21636;SDS011;10980;49.596;6.142;2022-07-10T18:15:59;2.55;;;1.00;;
21636;SDS011;10980;49.596;6.142;2022-07-10T18:19:37;3.17;;;1.05;;
21636;SDS011;10980;49.596;6.142;2022-07-10T18:23:00;1.77;;;0.50;;
21636;SDS011;10980;49.596;6.142;2022-07-10T18:26:23;3.88;;;0.80;;
21636;SDS011;10980;49.596;6.142;2022-07-10T18:29:44;1.63;;;0.88;;
21636;SDS011;10980;49.596;6.142;2022-07-10T18:33:08;1.88;;;0.70;;
21636;SDS011;10980;49.596;6.142;2022-07-10T18:37:03;2.08;;;0.70;;
21636;SDS011;10980;49.596;6.142;2022-07-10T18:40:25;1.45;;;0.70;;
21636;SDS011;10980;49.596;6.142;2022-07-10T18:43:48;4.47;;;1.00;;
21636;SDS011;10980;49.596;6.142;2022-07-10T18:47:10;3.17;;;0.80;;
21636;SDS011;10980;49.596;6.142;2022-07-10T18:50:31;2.25;;;0.60;;
21636;SDS011;10980;49.596;6.142;2022-07-10T18:53:53;4.03;;;0.82;;
21636;SDS011;10980;49.596;6.142;2022-07-10T18:57:15;2.13;;;0.70;;
21636;SDS011;10980;49.596;6.142;2022-07-10T19:00:40;2.97;;;0.82;;
21636;SDS011;10980;49.596;6.142;2022-07-10T19:04:03;2.13;;;0.50;;
21636;SDS011;10980;49.596;6.142;2022-07-10T19:07:25;1.95;;;0.50;;
21636;SDS011;10980;49.596;6.142;2022-07-10T19:10:47;3.17;;;0.57;;
21636;SDS011;10980;49.596;6.142;2022-07-10T19:14:08;1.85;;;0.68;;
21636;SDS011;10980;49.596;6.142;2022-07-10T19:17:31;10.07;;;1.13;;
21636;SDS011;10980;49.596;6.142;2022-07-10T19:20:53;1.08;;;0.52;;
21636;SDS011;10980;49.596;6.142;2022-07-10T19:24:15;1.58;;;0.70;;
21636;SDS011;10980;49.596;6.142;2022-07-10T19:27:37;4.43;;;0.90;;
21636;SDS011;10980;49.596;6.142;2022-07-10T19:30:59;3.53;;;0.77;;
21636;SDS011;10980;49.596;6.142;2022-07-10T19:34:22;2.47;;;0.93;;
21636;SDS011;10980;49.596;6.142;2022-07-10T19:37:43;1.92;;;0.80;;
21636;SDS011;10980;49.596;6.142;2022-07-10T19:41:05;1.75;;;0.82;;
21636;SDS011;10980;49.596;6.142;2022-07-10T19:44:31;1.30;;;0.60;;
21636;SDS011;10980;49.596;6.142;2022-07-10T19:47:53;3.15;;;0.60;;
21636;SDS011;10980;49.596;6.142;2022-07-10T19:51:18;4.20;;;0.90;;
21636;SDS011;10980;49.596;6.142;2022-07-10T19:54:39;3.00;;;0.75;;
21636;SDS011;10980;49.596;6.142;2022-07-10T19:58:02;3.00;;;0.80;;
21636;SDS011;10980;49.596;6.142;2022-07-10T20:01:24;0.73;;;0.60;;
21636;SDS011;10980;49.596;6.142;2022-07-10T20:04:46;3.22;;;0.80;;
21636;SDS011;10980;49.596;6.142;2022-07-10T20:08:08;3.72;;;1.02;;
21636;SDS011;10980;49.596;6.142;2022-07-10T20:11:30;6.03;;;0.98;;
21636;SDS011;10980;49.596;6.142;2022-07-10T20:14:52;1.20;;;0.70;;
21636;SDS011;10980;49.596;6.142;2022-07-10T20:18:14;5.28;;;0.93;;
21636;SDS011;10980;49.596;6.142;2022-07-10T20:21:36;3.85;;;0.82;;
21636;SDS011;10980;49.596;6.142;2022-07-10T20:24:58;3.22;;;0.80;;
21636;SDS011;10980;49.596;6.142;2022-07-10T20:28:20;1.63;;;0.70;;
21636;SDS011;10980;49.596;6.142;2022-07-10T20:31:42;2.33;;;1.00;;